createdAt,value
2017-10-27T00:00:02.318Z,99594.97
2017-10-27T00:02:29.838Z,99595.95
2017-10-27T00:04:57.233Z,99592.77
2017-10-27T00:07:24.687Z,99600.99
2017-10-27T00:09:52.115Z,99598.95
2017-10-27T00:12:19.544Z,99590.81
2017-10-27T00:14:46.969Z,99582.41
2017-10-27T00:17:14.425Z,99563.90
2017-10-27T00:19:42.327Z,99566.08
2017-10-27T00:22:09.743Z,99556.95
2017-10-27T00:24:37.168Z,99545.25
2017-10-27T00:27:04.721Z,99551.22
2017-10-27T00:29:32.151Z,99553.93
2017-10-27T00:32:00.482Z,99565.20
2017-10-27T00:34:27.929Z,99568.02
2017-10-27T00:36:55.359Z,99575.78
2017-10-27T00:39:22.758Z,99576.70
2017-10-27T00:41:50.239Z,99584.09
2017-10-27T00:44:17.627Z,99591.00
2017-10-27T00:46:45.064Z,99593.67
2017-10-27T00:49:12.481Z,99595.02
2017-10-27T00:51:39.912Z,99585.86
2017-10-27T00:54:07.377Z,99587.38
2017-10-27T00:56:34.820Z,99588.66
2017-10-27T00:59:02.219Z,99573.73
2017-10-27T01:01:29.677Z,99579.75
2017-10-27T01:03:57.112Z,99564.03
2017-10-27T01:06:24.535Z,99586.81
2017-10-27T01:08:51.969Z,99587.11
2017-10-27T01:11:19.430Z,99590.61
2017-10-27T01:13:46.893Z,99597.91
2017-10-27T01:16:14.335Z,99591.02
2017-10-27T01:18:41.768Z,99581.25
2017-10-27T01:21:09.182Z,99584.76
2017-10-27T01:23:36.615Z,99581.31
2017-10-27T01:26:04.025Z,99580.80
2017-10-27T01:28:31.472Z,99578.98
2017-10-27T01:30:58.880Z,99575.30
2017-10-27T01:33:26.319Z,99572.10
2017-10-27T01:35:53.750Z,99569.72
2017-10-27T01:38:21.163Z,99567.20
2017-10-27T01:40:48.602Z,99562.84
2017-10-27T01:43:16.017Z,99556.30
2017-10-27T01:45:43.444Z,99546.93
2017-10-27T01:48:10.863Z,99542.14
2017-10-27T01:50:38.282Z,99548.90
2017-10-27T01:53:05.691Z,99550.31
2017-10-27T01:55:33.131Z,99551.42
2017-10-27T01:58:00.551Z,99559.70
2017-10-27T02:00:28.015Z,99546.33
2017-10-27T02:02:55.412Z,99541.52
2017-10-27T02:05:22.857Z,99534.50
2017-10-27T02:07:50.312Z,99531.78
2017-10-27T02:10:17.797Z,99530.45
2017-10-27T02:12:45.247Z,99525.56
2017-10-27T02:15:12.788Z,99500.48
2017-10-27T02:17:40.208Z,99538.66
2017-10-27T02:20:07.609Z,99528.41
2017-10-27T02:22:35.064Z,99518.44
2017-10-27T02:25:02.495Z,99512.20
2017-10-27T02:27:29.885Z,99519.80
2017-10-27T02:29:57.317Z,99513.22
2017-10-27T02:32:24.724Z,99512.81
2017-10-27T02:34:52.243Z,99517.89
2017-10-27T02:37:19.643Z,99514.32
2017-10-27T02:39:47.048Z,99506.53
2017-10-27T02:42:14.511Z,99505.33
2017-10-27T02:44:41.896Z,99494.48
2017-10-27T02:47:09.329Z,99503.51
2017-10-27T02:49:36.781Z,99505.22
2017-10-27T02:52:04.201Z,99505.87
2017-10-27T02:54:31.595Z,99498.58
2017-10-27T02:56:59.059Z,99508.76
2017-10-27T02:59:26.461Z,99500.95
2017-10-27T03:01:53.907Z,99505.73
2017-10-27T03:04:21.343Z,99507.47
2017-10-27T03:06:48.781Z,99494.60
2017-10-27T03:09:16.292Z,99500.44
2017-10-27T03:11:43.692Z,99493.68
2017-10-27T03:14:11.146Z,99497.41
2017-10-27T03:16:38.588Z,99493.70
2017-10-27T03:19:06.028Z,99489.70
2017-10-27T03:21:33.429Z,99490.52
2017-10-27T03:24:00.880Z,99491.03
2017-10-27T03:26:28.297Z,99490.12
2017-10-27T03:28:55.877Z,99481.61
2017-10-27T03:31:23.274Z,99477.63
2017-10-27T03:33:50.691Z,99482.81
2017-10-27T03:36:18.137Z,99479.23
2017-10-27T03:38:45.530Z,99477.11
2017-10-27T03:41:12.957Z,99474.33
2017-10-27T03:43:40.362Z,99476.83
2017-10-27T03:46:07.799Z,99475.25
2017-10-27T03:48:35.217Z,99474.84
2017-10-27T03:51:02.649Z,99469.66
2017-10-27T03:53:30.057Z,99467.28
2017-10-27T03:55:57.485Z,99467.53
2017-10-27T03:58:24.876Z,99476.45
2017-10-27T04:00:52.325Z,99472.35
2017-10-27T04:03:19.729Z,99475.38
2017-10-27T04:05:47.144Z,99488.14
2017-10-27T04:08:14.581Z,99482.95
2017-10-27T04:10:41.996Z,99493.44
2017-10-27T04:13:09.411Z,99487.59
2017-10-27T04:15:36.819Z,99492.09
2017-10-27T04:18:04.235Z,99489.59
2017-10-27T04:20:31.660Z,99498.74
2017-10-27T04:22:59.145Z,99501.51
2017-10-27T04:25:26.580Z,99500.32
2017-10-27T04:27:54.006Z,99504.44
2017-10-27T04:30:21.432Z,99497.27
2017-10-27T04:32:48.850Z,99504.57
2017-10-27T04:35:16.307Z,99514.83
2017-10-27T04:37:43.692Z,99515.99
2017-10-27T04:40:11.128Z,99513.46
2017-10-27T04:42:38.566Z,99520.66
2017-10-27T04:45:06.008Z,99521.30
2017-10-27T04:47:33.438Z,99534.83
2017-10-27T04:50:00.871Z,99551.87
2017-10-27T04:52:28.291Z,99563.53
2017-10-27T04:54:55.738Z,99562.69
2017-10-27T04:57:23.167Z,99567.61
2017-10-27T04:59:50.558Z,99573.53
2017-10-27T05:02:18.012Z,99572.31
2017-10-27T05:04:45.411Z,99577.64
2017-10-27T05:07:12.904Z,99578.56
2017-10-27T05:09:40.303Z,99570.18
2017-10-27T05:12:07.757Z,99594.50
2017-10-27T05:14:35.169Z,99598.64
2017-10-27T05:17:08.252Z,99598.55
2017-10-27T05:19:41.292Z,99604.70
2017-10-27T05:22:14.260Z,99590.00
2017-10-27T05:24:41.669Z,99592.64
2017-10-27T05:27:09.100Z,99600.20
2017-10-27T05:29:36.519Z,99608.43
2017-10-27T05:32:03.918Z,99609.30
2017-10-27T05:34:31.336Z,99603.85
2017-10-27T05:36:58.763Z,99595.59
2017-10-27T05:39:26.220Z,99586.66
2017-10-27T05:41:53.609Z,99587.98
2017-10-27T05:44:21.060Z,99603.27
2017-10-27T05:46:48.480Z,99608.14
2017-10-27T05:49:15.932Z,99605.88
2017-10-27T05:51:43.336Z,99627.85
2017-10-27T05:54:10.781Z,99639.80
2017-10-27T05:56:38.208Z,99647.86
2017-10-27T05:59:05.618Z,99639.48
2017-10-27T06:01:33.101Z,99628.11
2017-10-27T06:04:00.525Z,99638.36
2017-10-27T06:06:27.976Z,99648.84
2017-10-27T06:08:55.403Z,99649.84
2017-10-27T06:11:22.859Z,99667.84
2017-10-27T06:13:50.291Z,99680.32
2017-10-27T06:16:17.824Z,99679.16
2017-10-27T06:18:45.248Z,99674.95
2017-10-27T06:21:12.698Z,99678.81
2017-10-27T06:23:40.123Z,99688.41
2017-10-27T06:26:07.624Z,99690.43
2017-10-27T06:28:36.512Z,99681.05
2017-10-27T06:31:04.000Z,99697.08
2017-10-27T06:33:31.435Z,99694.44
2017-10-27T06:35:58.914Z,99696.20
2017-10-27T06:38:26.549Z,99694.39
2017-10-27T06:40:53.960Z,99702.21
2017-10-27T06:43:21.395Z,99705.53
2017-10-27T06:45:48.825Z,99721.06
2017-10-27T06:48:16.377Z,99720.88
2017-10-27T06:50:43.901Z,99727.80
2017-10-27T06:53:11.318Z,99719.91
2017-10-27T06:55:38.741Z,99716.17
2017-10-27T06:58:06.169Z,99722.41
2017-10-27T07:00:33.575Z,99731.86
2017-10-27T07:03:01.372Z,99738.26
2017-10-27T07:05:28.835Z,99741.03
2017-10-27T07:08:00.956Z,99772.39
2017-10-27T07:10:30.681Z,99738.36
2017-10-27T07:12:58.152Z,99750.23
2017-10-27T07:15:25.571Z,99751.86
2017-10-27T07:18:00.441Z,99752.82
2017-10-27T07:23:15.925Z,99757.86
2017-10-27T07:25:45.027Z,99766.84
2017-10-27T07:28:12.669Z,99780.44
2017-10-27T07:30:40.229Z,99791.20
2017-10-27T07:33:24.044Z,99789.00
2017-10-27T07:35:51.800Z,99797.70
2017-10-27T07:38:19.302Z,99792.95
2017-10-27T07:40:46.735Z,99795.28
2017-10-27T07:43:14.963Z,99799.74
2017-10-27T07:45:42.452Z,99800.44
2017-10-27T07:48:09.903Z,99799.11
2017-10-27T07:50:37.373Z,99802.93
2017-10-27T07:53:04.936Z,99803.57
2017-10-27T07:55:32.371Z,99811.28
2017-10-27T07:57:59.820Z,99815.70
2017-10-27T08:00:27.200Z,99822.36
2017-10-27T08:02:54.661Z,99822.23
2017-10-27T08:05:22.072Z,99826.78
2017-10-27T08:07:49.563Z,99829.52
2017-10-27T08:10:16.960Z,99836.13
2017-10-27T08:12:44.406Z,99834.23
2017-10-27T08:15:11.817Z,99835.94
2017-10-27T08:17:39.208Z,99832.21
2017-10-27T08:20:06.626Z,99835.30
2017-10-27T08:22:34.018Z,99837.79
2017-10-27T08:25:01.454Z,99840.06
2017-10-27T08:27:28.855Z,99844.86
2017-10-27T08:29:56.294Z,99861.14
2017-10-27T08:32:23.826Z,99862.32
2017-10-27T08:34:51.285Z,99864.71
2017-10-27T08:37:18.764Z,99866.28
2017-10-27T08:39:46.176Z,99863.53
2017-10-27T08:42:26.236Z,99867.30
2017-10-27T08:44:53.626Z,99882.06
2017-10-27T08:47:21.047Z,99875.00
2017-10-27T08:49:48.588Z,99877.97
2017-10-27T08:52:16.048Z,99877.66
2017-10-27T08:54:43.540Z,99877.95
2017-10-27T08:57:11.213Z,99880.33
2017-10-27T08:59:38.673Z,99881.41
2017-10-27T09:02:06.094Z,99879.37
2017-10-27T09:04:33.521Z,99882.57
2017-10-27T09:07:00.931Z,99890.80
2017-10-27T09:09:28.341Z,99897.80
2017-10-27T09:11:55.795Z,99900.38
2017-10-27T09:14:23.241Z,99912.63
2017-10-27T09:16:50.646Z,99922.48
2017-10-27T09:19:18.103Z,99933.19
2017-10-27T09:21:45.519Z,99931.73
2017-10-27T09:24:13.831Z,99936.98
2017-10-27T09:26:41.229Z,99930.80
2017-10-27T09:29:08.648Z,99938.99
2017-10-27T09:31:36.117Z,99944.89
2017-10-27T09:34:03.507Z,99947.48
2017-10-27T09:36:30.932Z,99956.50
2017-10-27T09:38:58.334Z,99970.77
2017-10-27T09:41:25.748Z,99963.27
2017-10-27T09:43:53.153Z,99961.73
2017-10-27T09:46:20.663Z,99970.72
2017-10-27T09:48:48.100Z,99973.88
2017-10-27T09:51:15.577Z,99975.58
2017-10-27T09:53:42.957Z,99979.38
2017-10-27T09:56:10.421Z,99973.98
2017-10-27T09:58:38.157Z,99976.27
2017-10-27T10:01:05.556Z,99979.13
2017-10-27T10:03:32.996Z,99986.44
2017-10-27T10:06:00.400Z,99993.83
2017-10-27T10:08:27.830Z,99990.94
2017-10-27T10:10:55.219Z,100006.53
2017-10-27T10:13:22.687Z,100006.64
2017-10-27T10:15:50.093Z,100012.95
2017-10-27T10:18:17.524Z,100013.94
2017-10-27T10:20:45.703Z,100028.50
2017-10-27T10:23:13.136Z,100037.23
2017-10-27T10:25:40.563Z,100041.31
2017-10-27T10:28:07.963Z,100032.15
2017-10-27T10:30:35.475Z,100051.14
2017-10-27T10:33:02.868Z,100048.95
2017-10-27T10:35:30.390Z,100043.73
2017-10-27T10:37:57.831Z,100036.39
2017-10-27T10:40:25.379Z,100039.44
2017-10-27T10:42:52.784Z,100027.86
2017-10-27T10:45:20.301Z,100031.97
2017-10-27T10:47:47.723Z,100027.05
2017-10-27T10:50:15.124Z,100024.53
2017-10-27T10:52:42.551Z,100019.44
2017-10-27T10:55:10.029Z,100029.56
2017-10-27T10:57:37.428Z,100036.08
2017-10-27T11:00:04.850Z,100035.42
2017-10-27T11:02:32.332Z,100045.98
2017-10-27T11:04:59.746Z,100043.34
2017-10-27T11:07:27.140Z,100045.31
2017-10-27T11:09:54.638Z,100040.66
2017-10-27T11:12:22.064Z,100045.00
2017-10-27T11:14:49.578Z,100041.88
2017-10-27T11:17:16.999Z,100046.84
2017-10-27T11:19:44.419Z,100043.30
2017-10-27T11:22:11.832Z,100048.91
2017-10-27T11:24:39.280Z,100042.17
2017-10-27T11:27:06.676Z,100042.94
2017-10-27T11:29:34.115Z,100043.41
2017-10-27T11:32:01.554Z,100043.88
2017-10-27T11:34:28.982Z,100019.64
2017-10-27T11:36:56.407Z,100041.61
2017-10-27T11:39:24.084Z,100054.81
2017-10-27T11:41:51.584Z,100053.25
2017-10-27T11:44:19.014Z,100045.00
2017-10-27T11:46:47.176Z,100060.29
2017-10-27T11:49:14.664Z,100057.09
2017-10-27T11:51:42.083Z,100057.78
2017-10-27T11:54:09.519Z,100063.48
2017-10-27T11:56:36.953Z,100062.70
2017-10-27T11:59:04.384Z,100043.03
2017-10-27T12:01:32.043Z,100040.48
2017-10-27T12:03:59.460Z,100037.44
2017-10-27T12:06:26.892Z,100035.30
2017-10-27T12:08:54.289Z,100031.86
2017-10-27T12:11:21.723Z,100040.63
2017-10-27T12:13:49.124Z,100047.42
2017-10-27T12:16:16.536Z,100055.91
2017-10-27T12:18:43.943Z,100055.93
2017-10-27T12:21:11.368Z,100058.31
2017-10-27T12:23:39.355Z,100056.05
2017-10-27T12:26:06.792Z,100050.57
2017-10-27T12:28:34.200Z,100065.09
2017-10-27T12:31:01.645Z,100062.88
2017-10-27T12:33:29.087Z,100071.94
2017-10-27T12:35:56.492Z,100064.61
2017-10-27T12:38:23.931Z,100062.20
2017-10-27T12:40:51.324Z,100071.43
2017-10-27T12:43:18.755Z,100074.85
2017-10-27T12:45:46.190Z,100081.61
2017-10-27T12:48:13.611Z,100067.19
2017-10-27T12:50:41.030Z,100085.28
2017-10-27T12:53:08.484Z,100088.63
2017-10-27T12:55:35.959Z,100085.36
2017-10-27T12:58:03.445Z,100083.99
2017-10-27T13:00:30.853Z,100086.22
2017-10-27T13:02:58.257Z,100083.42
2017-10-27T13:05:25.731Z,100084.73
2017-10-27T13:07:53.130Z,100078.72
2017-10-27T13:10:20.592Z,100081.81
2017-10-27T13:12:48.036Z,100083.28
2017-10-27T13:15:15.487Z,100083.14
2017-10-27T13:17:43.583Z,100075.00
2017-10-27T13:20:11.038Z,100086.09
2017-10-27T13:22:38.479Z,100081.16
2017-10-27T13:25:05.918Z,100075.52
2017-10-27T13:27:33.346Z,100075.16
2017-10-27T13:30:00.745Z,100074.55
2017-10-27T13:32:28.213Z,100080.46
2017-10-27T13:34:55.613Z,100090.88
2017-10-27T13:37:23.053Z,100091.40
2017-10-27T13:39:51.544Z,100095.00
2017-10-27T13:42:19.512Z,100094.36
2017-10-27T13:44:46.939Z,100094.17
2017-10-27T13:47:14.383Z,100098.84
2017-10-27T13:49:41.809Z,100099.76
2017-10-27T13:52:09.256Z,100104.94
2017-10-27T13:54:36.725Z,100109.83
2017-10-27T13:57:04.172Z,100108.63
2017-10-27T13:59:31.627Z,100114.77
2017-10-27T14:01:59.041Z,100115.68
2017-10-27T14:04:26.524Z,100122.23
2017-10-27T14:06:53.947Z,100129.98
2017-10-27T14:09:21.386Z,100134.17
2017-10-27T14:11:48.793Z,100140.67
2017-10-27T14:14:16.229Z,100142.92
2017-10-27T14:16:43.633Z,100144.12
2017-10-27T14:19:11.095Z,100145.30
2017-10-27T14:21:38.515Z,100144.92
2017-10-27T14:24:06.022Z,100144.79
2017-10-27T14:26:33.424Z,100150.91
2017-10-27T14:29:00.840Z,100144.92
2017-10-27T14:31:28.248Z,100146.25
2017-10-27T14:33:55.695Z,100148.59
2017-10-27T14:36:23.108Z,100152.04
2017-10-27T14:38:51.115Z,100145.23
2017-10-27T14:41:18.541Z,100158.78
2017-10-27T14:43:45.936Z,100154.50
2017-10-27T14:46:13.400Z,100162.31
2017-10-27T14:48:40.794Z,100167.05
2017-10-27T14:51:08.272Z,100170.48
2017-10-27T14:53:35.769Z,100158.56
2017-10-27T14:56:03.200Z,100162.72
2017-10-27T14:58:30.608Z,100148.22
2017-10-27T15:00:58.077Z,100140.38
2017-10-27T15:03:25.500Z,100164.39
2017-10-27T15:05:52.927Z,100163.16
2017-10-27T15:08:20.400Z,100162.37
2017-10-27T15:10:47.803Z,100165.42
2017-10-27T15:13:15.260Z,100165.66
2017-10-27T15:15:42.693Z,100162.67
2017-10-27T15:18:10.151Z,100140.83
2017-10-27T15:20:37.548Z,100144.58
2017-10-27T15:23:05.013Z,100153.91
2017-10-27T15:25:32.424Z,100153.11
2017-10-27T15:27:59.821Z,100154.34
2017-10-27T15:30:27.252Z,100154.72
2017-10-27T15:32:54.679Z,100159.79
2017-10-27T15:35:22.108Z,100157.36
2017-10-27T15:37:49.527Z,100156.17
2017-10-27T15:40:16.967Z,100159.59
2017-10-27T15:42:44.355Z,100157.89
2017-10-27T15:45:11.776Z,100163.19
2017-10-27T15:47:39.176Z,100163.16
2017-10-27T15:50:06.829Z,100164.96
2017-10-27T15:52:34.324Z,100167.19
2017-10-27T15:55:01.786Z,100163.33
2017-10-27T15:57:29.199Z,100162.89
2017-10-27T15:59:56.591Z,100167.82
2017-10-27T16:02:24.040Z,100171.66
2017-10-27T16:04:51.481Z,100177.23
2017-10-27T16:07:18.932Z,100182.16
2017-10-27T16:09:46.397Z,100191.73
2017-10-27T16:12:13.819Z,100195.77
2017-10-27T16:14:41.931Z,100206.95
2017-10-27T16:17:09.430Z,100211.05
2017-10-27T16:19:36.836Z,100208.39
2017-10-27T16:22:04.272Z,100205.72
2017-10-27T16:24:31.733Z,100212.75
2017-10-27T16:26:59.135Z,100217.77
2017-10-27T16:29:26.553Z,100218.11
2017-10-27T16:31:53.996Z,100237.95
2017-10-27T16:34:21.438Z,100237.55
2017-10-27T16:36:48.832Z,100238.36
2017-10-27T16:39:16.258Z,100241.11
2017-10-27T16:41:43.707Z,100252.45
2017-10-27T16:44:11.168Z,100245.41
2017-10-27T16:46:38.576Z,100255.00
2017-10-27T16:49:06.032Z,100249.16
2017-10-27T16:51:33.460Z,100240.35
2017-10-27T16:54:00.919Z,100248.78
2017-10-27T16:56:28.360Z,100204.30
2017-10-27T16:58:55.811Z,100271.02
2017-10-27T17:01:23.333Z,100277.92
2017-10-27T17:03:50.824Z,100275.98
2017-10-27T17:06:18.335Z,100281.22
2017-10-27T17:08:45.812Z,100281.05
2017-10-27T17:11:13.328Z,100280.27
2017-10-27T17:13:40.767Z,100295.58
2017-10-27T17:16:08.215Z,100303.78
2017-10-27T17:18:35.637Z,100303.72
2017-10-27T17:21:03.094Z,100300.91
2017-10-27T17:23:31.747Z,100296.95
2017-10-27T17:25:59.180Z,100293.92
2017-10-27T17:28:26.636Z,100275.81
2017-10-27T17:30:54.078Z,100271.13
2017-10-27T17:33:21.606Z,100278.31
2017-10-27T17:35:49.008Z,100276.23
2017-10-27T17:38:16.477Z,100269.83
2017-10-27T17:40:43.887Z,100275.25
2017-10-27T17:43:11.321Z,100275.39
2017-10-27T17:45:38.778Z,100278.28
2017-10-27T17:48:06.212Z,100281.30
2017-10-27T17:50:33.647Z,100293.73
2017-10-27T17:53:01.035Z,100291.27
2017-10-27T17:55:28.469Z,100301.21
2017-10-27T17:57:55.962Z,100303.53
2017-10-27T18:00:23.404Z,100304.27
2017-10-27T18:02:50.832Z,100293.48
2017-10-27T18:05:18.292Z,100312.98
2017-10-27T18:07:45.687Z,100307.73
2017-10-27T18:10:13.116Z,100322.41
2017-10-27T18:12:40.554Z,100336.92
2017-10-27T18:15:07.992Z,100326.02
2017-10-27T18:17:35.448Z,100331.70
2017-10-27T18:20:02.904Z,100323.15
2017-10-27T18:22:30.346Z,100322.88
2017-10-27T18:24:57.768Z,100327.51
2017-10-27T18:27:25.196Z,100335.33
2017-10-27T18:29:52.650Z,100339.56
2017-10-27T18:32:20.094Z,100337.06
2017-10-27T18:34:47.516Z,100315.52
2017-10-27T18:37:14.935Z,100336.87
2017-10-27T18:39:42.336Z,100335.97
2017-10-27T18:42:09.770Z,100338.10
2017-10-27T18:44:37.324Z,100335.04
2017-10-27T18:47:04.747Z,100328.81
2017-10-27T18:49:32.189Z,100339.83
2017-10-27T18:51:59.605Z,100339.78
2017-10-27T18:54:27.425Z,100348.41
2017-10-27T18:56:54.850Z,100345.28
2017-10-27T18:59:22.321Z,100338.61
2017-10-27T19:01:49.783Z,100344.73
2017-10-27T19:04:17.216Z,100344.56
2017-10-27T19:06:44.624Z,100344.00
2017-10-27T19:09:12.048Z,100349.58
2017-10-27T19:11:39.460Z,100362.03
2017-10-27T19:14:06.916Z,100363.05
2017-10-27T19:16:34.335Z,100357.95
2017-10-27T19:19:01.748Z,100359.36
2017-10-27T19:21:29.195Z,100357.25
2017-10-27T19:23:56.587Z,100348.44
2017-10-27T19:26:24.034Z,100361.17
2017-10-27T19:28:51.440Z,100365.87
2017-10-27T19:31:18.892Z,100364.12
2017-10-27T19:33:46.311Z,100371.05
2017-10-27T19:36:13.757Z,100362.77
2017-10-27T19:38:41.196Z,100363.38
2017-10-27T19:41:08.585Z,100364.36
2017-10-27T19:43:36.036Z,100363.44
2017-10-27T19:46:03.462Z,100359.44
2017-10-27T19:48:30.900Z,100348.04
2017-10-27T19:50:58.296Z,100369.44
2017-10-27T19:53:25.714Z,100370.45
2017-10-27T19:55:53.120Z,100356.19
2017-10-27T19:58:20.575Z,100367.42
2017-10-27T20:00:47.975Z,100376.06
2017-10-27T20:03:15.434Z,100389.06
2017-10-27T20:05:42.979Z,100381.91
2017-10-27T20:08:10.451Z,100382.90
2017-10-27T20:10:37.860Z,100378.00
2017-10-27T20:13:05.300Z,100378.36
2017-10-27T20:15:32.701Z,100379.52
2017-10-27T20:18:00.117Z,100386.42
2017-10-27T20:20:27.548Z,100391.38
2017-10-27T20:22:54.941Z,100393.04
2017-10-27T20:25:22.365Z,100380.03
2017-10-27T20:27:49.782Z,100394.11
2017-10-27T20:30:17.529Z,100402.23
2017-10-27T20:32:44.928Z,100394.30
2017-10-27T20:35:12.368Z,100397.46
2017-10-27T20:37:39.768Z,100392.11
2017-10-27T20:40:07.194Z,100393.91
2017-10-27T20:42:34.626Z,100390.44
2017-10-27T20:45:02.054Z,100391.31
2017-10-27T20:47:29.480Z,100390.73
2017-10-27T20:49:56.900Z,100387.16
2017-10-27T20:52:24.351Z,100377.05
2017-10-27T20:54:51.751Z,100366.48
2017-10-27T20:57:19.228Z,100353.23
2017-10-27T20:59:46.645Z,100357.44
2017-10-27T21:02:14.077Z,100350.98
2017-10-27T21:04:41.518Z,100363.19
2017-10-27T21:07:08.914Z,100356.34
2017-10-27T21:09:36.347Z,100357.20
2017-10-27T21:12:03.900Z,100356.33
2017-10-27T21:14:31.348Z,100366.39
2017-10-27T21:16:58.761Z,100373.44
2017-10-27T21:19:26.200Z,100371.48
2017-10-27T21:21:53.596Z,100370.22
2017-10-27T21:24:21.098Z,100375.42
2017-10-27T21:26:48.526Z,100371.69
2017-10-27T21:29:15.960Z,100371.05
2017-10-27T21:31:44.811Z,100367.69
2017-10-27T21:34:12.246Z,100369.68
2017-10-27T21:36:39.691Z,100360.13
2017-10-27T21:39:07.223Z,100358.87
2017-10-27T21:41:34.641Z,100360.53
2017-10-27T21:44:02.052Z,100354.50
2017-10-27T21:46:29.861Z,100359.30
2017-10-27T21:48:57.250Z,100363.77
2017-10-27T21:51:24.685Z,100355.02
2017-10-27T21:53:52.101Z,100359.35
2017-10-27T21:56:19.520Z,100365.03
2017-10-27T21:58:46.942Z,100362.78
2017-10-27T22:01:14.382Z,100362.17
2017-10-27T22:03:41.825Z,100366.29
2017-10-27T22:06:09.229Z,100365.53
2017-10-27T22:08:36.668Z,100368.48
2017-10-27T22:11:04.094Z,100360.14
2017-10-27T22:13:31.539Z,100351.74
2017-10-27T22:15:58.962Z,100355.07
2017-10-27T22:18:26.387Z,100348.22
2017-10-27T22:20:53.796Z,100350.35
2017-10-27T22:23:21.222Z,100344.70
2017-10-27T22:25:48.624Z,100341.91
2017-10-27T22:28:16.088Z,100337.44
2017-10-27T22:30:43.481Z,100338.07
2017-10-27T22:33:10.909Z,100336.94
2017-10-27T22:35:38.316Z,100335.87
2017-10-27T22:38:05.752Z,100343.92
2017-10-27T22:40:33.152Z,100337.60
2017-10-27T22:43:00.584Z,100333.13
2017-10-27T22:45:28.037Z,100329.95
2017-10-27T22:47:55.461Z,100331.08
2017-10-27T22:50:22.896Z,100328.30
2017-10-27T22:52:50.308Z,100333.49
2017-10-27T22:55:17.763Z,100329.27
2017-10-27T22:57:45.168Z,100326.23
2017-10-27T23:00:12.835Z,100333.73
2017-10-27T23:02:40.242Z,100326.66
2017-10-27T23:05:07.659Z,100325.09
2017-10-27T23:10:42.147Z,100320.52
2017-10-27T23:13:09.594Z,100311.28
2017-10-27T23:15:36.999Z,100304.98
2017-10-27T23:18:04.431Z,100302.31
2017-10-27T23:20:31.843Z,100299.67
2017-10-27T23:22:59.319Z,100304.75
2017-10-27T23:25:26.720Z,100304.17
2017-10-27T23:27:54.160Z,100296.66
2017-10-27T23:30:21.566Z,100294.63
2017-10-27T23:32:48.974Z,100278.81
2017-10-27T23:35:16.404Z,100280.69
2017-10-27T23:37:43.789Z,100295.00
2017-10-27T23:40:11.243Z,100289.44
2017-10-27T23:42:38.630Z,100296.80
2017-10-27T23:45:06.047Z,100286.20
2017-10-27T23:47:33.438Z,100284.40
2017-10-27T23:50:00.855Z,100291.39
2017-10-27T23:52:28.280Z,100266.39
2017-10-27T23:54:55.716Z,100273.23
2017-10-27T23:57:23.111Z,100274.47
2017-10-27T23:59:50.533Z,100264.20
